Time;durP1;ratioP1;P1;durP2;ratioP2;P2;SDS_P1;SDS_P2;PMS_P1;PMS_P2;Temp;Humidity;BMP_temperature;BMP_pressure;BME280_temperature;BME280_humidity;BME280_pressure;Samples;Min_cycle;Max_cycle;Signal;HPM_P1;HPM_P2
2022/05/31 00:01:11;;;;;;;3.25;2.47;;;;;;;5.27;99.63;98313.25;2575110;28;20042;-85
2022/05/31 00:02:27;;;;;;;4.35;2.45;;;;;;;5.25;99.73;98315.00;2575346;28;20096;-83
2022/05/31 00:03:43;;;;;;;4.70;2.63;;;;;;;5.18;99.06;98311.59;2575171;28;20062;-84
2022/05/31 00:04:58;;;;;;;4.70;2.90;;;;;;;5.18;98.48;98322.00;2575446;28;20050;-84
2022/05/31 00:06:14;;;;;;;4.00;2.85;;;;;;;5.15;98.55;98318.56;2574922;28;20054;-83
2022/05/31 00:07:30;;;;;;;3.78;2.80;;;;;;;5.17;98.58;98312.47;2575482;28;20050;-85
2022/05/31 00:08:46;;;;;;;4.75;2.72;;;;;;;5.21;99.22;98315.88;2575598;28;20065;-85
2022/05/31 00:10:02;;;;;;;5.22;3.15;;;;;;;5.24;99.08;98315.88;2575533;28;20386;-86
2022/05/31 00:11:17;;;;;;;4.78;2.83;;;;;;;5.25;98.75;98312.41;2575255;28;20453;-86
2022/05/31 00:12:33;;;;;;;4.43;2.50;;;;;;;5.22;99.02;98310.69;2575340;28;20062;-87
2022/05/31 00:13:48;;;;;;;5.40;3.03;;;;;;;5.23;99.11;98316.72;2575450;28;20050;-87
2022/05/31 00:15:05;;;;;;;4.45;2.83;;;;;;;5.19;98.65;98312.44;2575351;28;20461;-85
2022/05/31 00:16:21;;;;;;;5.35;3.25;;;;;;;5.22;98.55;98321.09;2575287;28;20569;-83
2022/05/31 00:17:37;;;;;;;4.35;2.85;;;;;;;5.22;98.23;98315.00;2575393;28;20058;-86
2022/05/31 00:18:52;;;;;;;5.18;2.85;;;;;;;5.12;98.64;98313.38;2575456;28;20050;-84
2022/05/31 00:20:10;;;;;;;6.20;3.35;;;;;;;5.05;99.14;98312.56;2575309;28;20046;-87
2022/05/31 00:21:36;;;;;;;5.55;3.00;;;;;;;4.98;98.93;98309.16;2575269;28;20489;-84
2022/05/31 00:22:52;;;;;;;7.10;3.08;;;;;;;4.95;98.80;98309.16;2575347;28;20050;-85
2022/05/31 00:24:10;;;;;;;6.55;3.25;;;;;;;5.01;98.72;98311.72;2575727;28;20043;-83
2022/05/31 00:25:26;;;;;;;4.88;3.00;;;;;;;4.95;98.99;98304.84;2575143;28;20057;-83
2022/05/31 00:26:41;;;;;;;4.47;2.58;;;;;;;4.84;98.51;98306.66;2575228;28;20580;-83
2022/05/31 00:27:57;;;;;;;4.47;2.80;;;;;;;4.88;98.37;98310.94;2575492;28;20054;-83
2022/05/31 00:29:13;;;;;;;6.03;3.38;;;;;;;4.87;96.98;98309.22;2575623;28;20112;-83
2022/05/31 00:30:29;;;;;;;4.60;2.80;;;;;;;4.82;96.72;98308.41;2575304;28;20057;-84
2022/05/31 00:31:47;;;;;;;3.47;2.55;;;;;;;4.79;97.69;98306.69;2575228;28;20538;-82
2022/05/31 00:33:05;;;;;;;4.85;3.22;;;;;;;4.70;98.22;98304.19;2575460;28;20096;-84
2022/05/31 00:34:20;;;;;;;3.25;2.60;;;;;;;4.65;98.20;98303.31;2575254;28;20050;-83
2022/05/31 00:35:39;;;;;;;3.70;2.75;;;;;;;4.71;98.36;98300.72;2575586;28;20047;-83
2022/05/31 00:36:56;;;;;;;4.55;2.63;;;;;;;4.75;98.72;98310.19;2575505;28;20076;-83
2022/05/31 00:38:12;;;;;;;4.40;2.72;;;;;;;4.78;98.24;98317.09;2575403;28;20051;-83
2022/05/31 00:39:28;;;;;;;4.57;2.60;;;;;;;4.73;97.13;98314.53;2575765;28;20481;-83
2022/05/31 00:40:44;;;;;;;3.17;2.40;;;;;;;4.65;96.52;98319.75;2564493;28;20046;-85
2022/05/31 00:42:03;;;;;;;4.15;2.63;;;;;;;4.60;97.20;98316.31;2568945;28;20556;-84
2022/05/31 00:43:22;;;;;;;4.07;2.70;;;;;;;4.59;97.50;98318.94;2576054;28;20058;-87
2022/05/31 00:44:39;;;;;;;3.13;2.50;;;;;;;4.51;97.78;98309.44;2577319;28;20077;-84
2022/05/31 00:45:59;;;;;;;4.50;2.55;;;;;;;4.44;98.27;98309.50;2577207;28;20051;-85
2022/05/31 00:47:31;;;;;;;3.45;2.60;;;;;;;4.43;99.03;98307.78;2577211;28;20057;-88
2022/05/31 00:48:55;;;;;;;;;;;;;;;4.40;98.86;98313.84;2578186;28;20061;-84
2022/05/31 00:50:24;;;;;;;6.10;2.83;;;;;;;4.37;98.54;98306.94;2577357;28;19925;-89
2022/05/31 00:51:46;;;;;;;4.68;2.70;;;;;;;4.42;98.76;98311.25;2577346;28;20093;-86
2022/05/31 00:53:09;;;;;;;4.18;2.70;;;;;;;4.41;99.26;98309.53;2577631;28;20050;-85
2022/05/31 00:54:27;;;;;;;5.10;3.28;;;;;;;4.41;99.34;98313.00;2577477;28;20050;-84
2022/05/31 00:55:50;;;;;;;4.55;2.85;;;;;;;4.43;99.76;98310.38;2577654;28;20411;-83
2022/05/31 00:57:06;;;;;;;4.65;2.80;;;;;;;4.44;100.00;98312.97;2577557;28;20184;-83
2022/05/31 00:58:43;;;;;;;4.25;2.88;;;;;;;4.49;100.00;98307.75;2577416;28;20054;-83
2022/05/31 01:00:06;;;;;;;4.28;2.83;;;;;;;4.51;100.00;98316.38;2576932;28;20499;-85
2022/05/31 01:01:22;;;;;;;5.72;3.38;;;;;;;4.51;100.00;98311.19;2577202;28;20081;-85
2022/05/31 01:02:39;;;;;;;4.40;3.00;;;;;;;4.48;100.00;98313.81;2577220;28;20101;-85
2022/05/31 01:03:58;;;;;;;6.22;3.72;;;;;;;4.48;100.00;98319.00;2577137;28;20128;-86
2022/05/31 01:05:14;;;;;;;4.07;3.03;;;;;;;4.42;99.53;98324.19;2577465;28;20082;-85
2022/05/31 01:06:32;;;;;;;5.35;3.50;;;;;;;4.35;99.68;98320.78;2576855;28;20473;-84
2022/05/31 01:07:48;;;;;;;4.15;2.90;;;;;;;4.28;99.82;98324.28;2577476;28;20948;-83
2022/05/31 01:09:04;;;;;;;4.78;2.97;;;;;;;4.30;99.45;98322.53;2577200;28;20141;-83
2022/05/31 01:10:20;;;;;;;5.30;2.97;;;;;;;4.28;99.33;98319.94;2577302;28;20072;-84
2022/05/31 01:11:41;;;;;;;5.18;3.30;;;;;;;4.19;99.68;98314.78;2577363;28;20081;-83
2022/05/31 01:12:58;;;;;;;4.60;2.90;;;;;;;4.15;99.27;98324.31;2577067;28;20058;-84
2022/05/31 01:14:14;;;;;;;4.80;3.03;;;;;;;4.16;98.46;98323.47;2577480;28;20050;-83
2022/05/31 01:15:30;;;;;;;5.53;3.22;;;;;;;4.08;98.17;98318.31;2577459;28;20060;-84
2022/05/31 01:17:00;;;;;;;3.97;3.08;;;;;;;4.07;98.07;98331.25;2577414;28;20061;-84
2022/05/31 01:18:16;;;;;;;4.88;2.60;;;;;;;4.05;98.01;98328.69;2577202;28;20053;-83
2022/05/31 01:21:07;;;;;;;3.55;2.65;;;;;;;4.00;98.93;98320.06;2578132;28;20088;-88
2022/05/31 01:23:12;;;;;;;3.95;2.47;;;;;;;3.98;99.42;98320.91;2577770;28;20054;-83
2022/05/31 01:24:30;;;;;;;4.30;2.90;;;;;;;3.90;99.17;98324.41;2545274;29;20115;-83
2022/05/31 01:26:09;;;;;;;4.22;2.80;;;;;;;3.85;98.75;98318.38;2577725;28;20283;-82
2022/05/31 01:27:39;;;;;;;3.97;2.50;;;;;;;3.79;98.61;98316.69;2577418;28;20153;-83
2022/05/31 01:29:24;;;;;;;3.67;2.45;;;;;;;3.80;98.66;98321.00;2577456;28;20054;-84
2022/05/31 01:30:59;;;;;;;3.50;2.30;;;;;;;3.73;99.52;98321.84;2576846;28;20058;-83
2022/05/31 01:32:15;;;;;;;3.67;2.90;;;;;;;3.74;99.18;98323.56;2576715;28;20420;-87
2022/05/31 01:33:41;;;;;;;4.43;3.08;;;;;;;3.80;99.01;98325.28;2577021;28;20054;-84
2022/05/31 01:35:06;;;;;;;4.78;3.05;;;;;;;3.80;98.94;98325.28;2577110;28;20277;-83
2022/05/31 01:36:30;;;;;;;4.10;2.60;;;;;;;3.74;98.96;98313.22;2576954;28;20493;-84
2022/05/31 01:38:09;;;;;;;3.75;2.47;;;;;;;3.75;98.83;98320.13;2576759;28;20060;-85
2022/05/31 01:40:00;;;;;;;4.72;3.03;;;;;;;3.71;99.45;98321.00;2576958;28;20053;-83
2022/05/31 01:41:28;;;;;;;3.08;2.42;;;;;;;3.70;99.36;98319.28;2573019;28;20058;-84
2022/05/31 01:42:46;;;;;;;4.05;2.90;;;;;;;3.70;100.00;98316.69;2577131;28;20105;-84
2022/05/31 01:44:06;;;;;;;5.32;3.28;;;;;;;3.67;100.00;98314.97;2576775;28;20065;-85
2022/05/31 01:45:26;;;;;;;4.22;2.80;;;;;;;3.69;100.00;98312.38;2577086;28;20050;-83
2022/05/31 01:46:43;;;;;;;3.97;2.75;;;;;;;3.68;100.00;98310.66;2576647;28;20089;-85
2022/05/31 01:48:02;;;;;;;3.78;2.70;;;;;;;3.66;99.81;98314.97;2576766;28;20504;-83
2022/05/31 01:49:19;;;;;;;3.67;2.85;;;;;;;3.65;99.35;98310.66;2576608;28;20054;-86
2022/05/31 01:50:36;;;;;;;5.15;3.15;;;;;;;3.64;99.14;98311.53;2576794;28;20097;-83
2022/05/31 01:51:52;;;;;;;3.58;2.80;;;;;;;3.61;99.10;98309.81;2576767;28;20058;-83
2022/05/31 01:53:09;;;;;;;3.50;2.60;;;;;;;3.62;98.92;98313.25;2576667;28;20477;-86
2022/05/31 01:54:25;;;;;;;5.47;3.00;;;;;;;3.61;98.51;98316.69;2575989;28;20054;-83
2022/05/31 01:55:43;;;;;;;4.03;2.70;;;;;;;3.59;98.25;98311.53;2576138;28;20437;-84
2022/05/31 01:57:02;;;;;;;4.00;2.47;;;;;;;3.62;97.98;98308.06;2576467;28;20057;-83
2022/05/31 01:58:22;;;;;;;3.00;2.60;;;;;;;3.64;98.91;98314.97;2576639;28;20501;-84
2022/05/31 01:59:41;;;;;;;4.13;2.45;;;;;;;3.65;98.59;98315.84;2576643;28;20084;-83
2022/05/31 02:00:57;;;;;;;3.13;2.55;;;;;;;3.65;98.67;98314.09;2576592;28;20054;-83
2022/05/31 02:02:16;;;;;;;3.78;2.58;;;;;;;3.63;98.48;98320.13;2576866;28;20105;-83
2022/05/31 02:03:33;;;;;;;3.00;2.45;;;;;;;3.59;99.56;98314.13;2576834;28;20116;-83
2022/05/31 02:04:49;;;;;;;4.57;2.85;;;;;;;3.53;100.00;98317.59;2576572;28;20561;-83
2022/05/31 02:06:21;;;;;;;3.50;2.72;;;;;;;3.45;100.00;98311.56;2576581;28;20065;-83
2022/05/31 02:07:37;;;;;;;4.63;2.90;;;;;;;3.45;100.00;98310.72;2576637;28;20502;-83
2022/05/31 02:08:52;;;;;;;3.83;3.00;;;;;;;3.46;100.00;98312.44;2576555;28;20042;-83
2022/05/31 02:10:09;;;;;;;4.85;2.80;;;;;;;3.46;100.00;98312.44;2576516;28;20485;-82
2022/05/31 02:11:25;;;;;;;3.65;2.42;;;;;;;3.38;100.00;98315.03;2576493;28;20426;-87
2022/05/31 02:12:41;;;;;;;4.18;3.03;;;;;;;3.38;100.00;98322.78;2576563;28;20061;-82
2022/05/31 02:13:58;;;;;;;4.00;2.70;;;;;;;3.41;100.00;98314.13;2576576;28;20485;-83
2022/05/31 02:15:14;;;;;;;4.05;2.78;;;;;;;3.39;100.00;98312.41;2576302;28;20046;-84
2022/05/31 02:16:29;;;;;;;3.67;3.13;;;;;;;3.35;100.00;98315.88;2576027;28;20064;-84
2022/05/31 02:17:45;;;;;;;3.78;2.63;;;;;;;3.34;100.00;98313.28;2576481;28;20054;-83
2022/05/31 02:19:18;;;;;;;4.88;3.33;;;;;;;3.32;100.00;98305.53;2576289;28;20046;-84
2022/05/31 02:20:33;;;;;;;5.75;2.92;;;;;;;3.34;100.00;98310.69;2576575;28;20088;-83
2022/05/31 02:21:53;;;;;;;4.78;2.90;;;;;;;3.34;100.00;98316.75;2576426;28;20432;-83
2022/05/31 02:23:09;;;;;;;4.22;3.05;;;;;;;3.35;100.00;98310.72;2576338;28;20052;-83
2022/05/31 02:24:26;;;;;;;6.97;3.22;;;;;;;3.41;100.00;98319.31;2576512;28;20061;-83
2022/05/31 02:25:41;;;;;;;4.20;2.95;;;;;;;3.41;100.00;98315.00;2576365;28;20577;-83
2022/05/31 02:26:57;;;;;;;4.80;2.88;;;;;;;3.35;100.00;98320.19;2576429;28;20081;-84
2022/05/31 02:28:13;;;;;;;4.93;2.78;;;;;;;3.34;100.00;98319.34;2576499;28;20055;-84
2022/05/31 02:29:31;;;;;;;5.07;2.92;;;;;;;3.24;100.00;98313.31;2576478;28;20089;-84
2022/05/31 02:30:47;;;;;;;5.35;2.83;;;;;;;3.18;100.00;98315.88;2576172;28;20050;-83
2022/05/31 02:32:06;;;;;;;5.28;2.95;;;;;;;3.18;100.00;98317.63;2576595;28;20062;-84
2022/05/31 02:33:21;;;;;;;4.47;2.88;;;;;;;3.20;100.00;98323.66;2576332;28;20145;-84
2022/05/31 02:34:42;;;;;;;4.70;3.00;;;;;;;3.18;100.00;98326.22;2576338;28;20112;-83
2022/05/31 02:35:58;;;;;;;3.83;2.78;;;;;;;3.20;100.00;98324.50;2576406;28;20577;-85
2022/05/31 02:37:14;;;;;;;3.75;2.58;;;;;;;3.20;100.00;98321.91;2576331;28;20077;-84
2022/05/31 02:38:29;;;;;;;3.35;2.47;;;;;;;3.23;99.93;98321.94;2576456;28;20054;-82
2022/05/31 02:39:46;;;;;;;4.43;2.50;;;;;;;3.23;99.40;98323.66;2576216;28;20050;-84
2022/05/31 02:41:01;;;;;;;4.18;2.83;;;;;;;3.24;99.08;98317.59;2576431;28;20907;-86
2022/05/31 02:42:17;;;;;;;3.88;2.40;;;;;;;3.28;99.08;98326.25;2565263;28;20110;-84
2022/05/31 02:43:33;;;;;;;4.07;2.38;;;;;;;3.30;99.19;98327.09;2569743;28;20109;-86
2022/05/31 02:44:48;;;;;;;3.47;2.85;;;;;;;3.31;98.84;98324.53;2576084;28;20084;-84
2022/05/31 02:46:04;;;;;;;4.28;2.78;;;;;;;3.27;99.26;98333.13;2576067;28;20077;-83
2022/05/31 02:47:20;;;;;;;4.28;2.80;;;;;;;3.30;99.22;98327.09;2576513;28;20357;-84
2022/05/31 02:48:37;;;;;;;3.05;2.53;;;;;;;3.29;99.00;98336.59;2576214;28;20050;-84
2022/05/31 02:49:52;;;;;;;4.43;2.90;;;;;;;3.32;99.51;98321.06;2575940;28;20093;-85
2022/05/31 02:51:08;;;;;;;3.72;2.78;;;;;;;3.38;100.00;98330.56;2576204;28;20046;-85
2022/05/31 02:52:23;;;;;;;7.07;3.15;;;;;;;3.34;100.00;98323.63;2576256;28;20093;-84
2022/05/31 02:53:40;;;;;;;4.65;3.03;;;;;;;3.28;100.00;98316.72;2576455;28;20386;-84
2022/05/31 02:54:55;;;;;;;5.00;2.95;;;;;;;3.25;99.40;98320.22;2575917;28;20089;-84
2022/05/31 02:56:11;;;;;;;4.43;2.95;;;;;;;3.24;98.99;98320.19;2575901;28;20551;-83
2022/05/31 02:57:27;;;;;;;4.25;2.97;;;;;;;3.21;100.00;98317.63;2576293;28;20084;-83
2022/05/31 02:58:43;;;;;;;4.78;3.20;;;;;;;3.21;100.00;98318.50;2575861;28;20562;-89
2022/05/31 02:59:58;;;;;;;4.80;3.53;;;;;;;3.16;100.00;98311.59;2576214;28;20074;-83
2022/05/31 03:01:27;;;;;;;4.97;3.53;;;;;;;3.16;100.00;98314.19;2576153;28;20449;-84
2022/05/31 03:02:42;;;;;;;5.55;3.75;;;;;;;3.17;100.00;98311.56;2576175;28;20077;-83
2022/05/31 03:03:58;;;;;;;6.47;3.70;;;;;;;3.18;100.00;98312.44;2575914;28;20068;-83
2022/05/31 03:05:14;;;;;;;5.57;3.70;;;;;;;3.20;100.00;98319.31;2575859;28;20048;-83
2022/05/31 03:06:29;;;;;;;5.40;3.85;;;;;;;3.26;100.00;98321.06;2574804;28;20062;-86
2022/05/31 03:07:45;;;;;;;5.30;3.50;;;;;;;3.31;99.91;98315.88;2576050;28;20058;-83
2022/05/31 03:09:01;;;;;;;4.88;3.35;;;;;;;3.24;99.61;98313.31;2575925;28;20447;-84
2022/05/31 03:10:16;;;;;;;5.20;3.10;;;;;;;3.23;100.00;98314.19;2576003;28;20401;-86
2022/05/31 03:11:37;;;;;;;6.20;3.42;;;;;;;3.25;100.00;98308.97;2576022;28;20421;-85
2022/05/31 03:12:55;;;;;;;4.85;3.45;;;;;;;3.25;100.00;98312.44;2576103;28;20047;-82
2022/05/31 03:14:25;;;;;;;6.68;3.30;;;;;;;3.28;100.00;98308.97;2576073;28;20046;-82
2022/05/31 03:15:41;;;;;;;5.18;3.00;;;;;;;3.23;100.00;98311.59;2564982;28;20066;-85
2022/05/31 03:17:27;;;;;;;14.95;3.42;;;;;;;3.20;100.00;98310.72;2569454;28;20058;-84
2022/05/31 03:18:53;;;;;;;27.70;3.30;;;;;;;3.25;100.00;98309.84;2576182;28;20054;-85
2022/05/31 03:20:15;;;;;;;39.15;4.43;;;;;;;3.29;100.00;98310.72;2575716;28;20090;-85
2022/05/31 03:21:40;;;;;;;56.40;6.38;;;;;;;3.45;100.00;98300.34;2575617;28;20049;-85
2022/05/31 03:23:21;;;;;;;32.17;3.63;;;;;;;3.47;100.00;98299.47;2575762;28;20077;-82
2022/05/31 03:24:47;;;;;;;17.73;3.80;;;;;;;3.55;100.00;98299.44;2575770;28;20151;-83
2022/05/31 03:26:06;;;;;;;22.38;3.85;;;;;;;3.61;100.00;98303.75;2575663;28;20080;-83
2022/05/31 03:27:22;;;;;;;19.75;3.65;;;;;;;3.68;100.00;98300.31;2575936;28;20413;-83
2022/05/31 03:28:38;;;;;;;51.72;4.50;;;;;;;3.74;100.00;98302.00;2575769;28;20046;-83
2022/05/31 03:29:56;;;;;;;11.32;3.53;;;;;;;3.77;100.00;98302.00;2575812;28;20057;-83
2022/05/31 03:31:12;;;;;;;145.20;7.90;;;;;;;3.84;100.00;98298.50;2575895;28;20046;-84
2022/05/31 03:32:30;;;;;;;69.72;4.88;;;;;;;3.84;100.00;98301.09;2565206;28;20047;-84
2022/05/31 03:33:46;;;;;;;27.13;3.90;;;;;;;3.94;100.00;98294.19;2569859;28;20120;-82
2022/05/31 03:35:03;;;;;;;18.48;3.33;;;;;;;4.00;100.00;98299.31;2575779;28;20050;-82
2022/05/31 03:36:19;;;;;;;36.42;4.32;;;;;;;4.02;100.00;98291.56;2575845;28;20054;-83
2022/05/31 03:37:34;;;;;;;28.05;3.85;;;;;;;4.09;100.00;98291.53;2574728;28;20451;-82
2022/05/31 03:38:50;;;;;;;76.18;4.63;;;;;;;4.17;100.00;98288.91;2574812;28;20050;-83
2022/05/31 03:40:07;;;;;;;71.97;4.90;;;;;;;4.13;100.00;98297.56;2575580;28;20113;-83
2022/05/31 03:41:22;;;;;;;29.33;3.92;;;;;;;4.14;100.00;98299.28;2575571;28;20050;-83
2022/05/31 03:42:38;;;;;;;40.97;4.38;;;;;;;4.08;100.00;98294.13;2575554;28;20054;-83
2022/05/31 03:43:53;;;;;;;37.58;3.75;;;;;;;4.04;100.00;98297.59;2575022;28;20050;-82
2022/05/31 03:45:10;;;;;;;30.75;3.85;;;;;;;4.07;100.00;98298.44;2575546;28;20101;-82
2022/05/31 03:46:25;;;;;;;17.98;3.22;;;;;;;4.08;100.00;98297.59;2575638;28;20108;-87
2022/05/31 03:47:41;;;;;;;28.38;3.17;;;;;;;4.09;100.00;98295.84;2574775;28;20133;-83
2022/05/31 03:48:58;;;;;;;30.83;3.17;;;;;;;4.02;100.00;98299.34;2574846;28;20509;-83
2022/05/31 03:50:14;;;;;;;29.20;3.15;;;;;;;4.01;100.00;98292.44;2575406;28;20109;-82
2022/05/31 03:51:30;;;;;;;34.65;3.53;;;;;;;4.00;100.00;98295.91;2575564;28;20144;-83
2022/05/31 03:52:45;;;;;;;35.42;4.15;;;;;;;4.30;100.00;98297.47;2575431;28;20047;-82
2022/05/31 03:54:01;;;;;;;37.10;4.53;;;;;;;4.29;100.00;98295.75;2575090;28;20058;-83
2022/05/31 03:55:16;;;;;;;28.95;4.70;;;;;;;4.34;100.00;98299.19;2575372;28;20631;-85
2022/05/31 03:56:36;;;;;;;38.67;4.55;;;;;;;4.27;100.00;98307.84;2575428;28;20061;-83
2022/05/31 03:57:52;;;;;;;38.85;4.10;;;;;;;4.05;100.00;98302.78;2575493;28;20045;-83
2022/05/31 03:59:08;;;;;;;26.20;4.03;;;;;;;4.04;100.00;98302.78;2575700;28;20366;-84
2022/05/31 04:00:24;;;;;;;26.63;4.30;;;;;;;3.99;100.00;98307.97;2575686;28;20057;-85
2022/05/31 04:01:39;;;;;;;32.88;3.70;;;;;;;3.93;100.00;98313.19;2575888;28;20057;-84
2022/05/31 04:02:55;;;;;;;62.58;4.85;;;;;;;4.02;100.00;98313.13;2575752;28;20050;-83
2022/05/31 04:04:11;;;;;;;49.22;4.78;;;;;;;4.03;100.00;98309.66;2575933;28;20616;-88
2022/05/31 04:05:27;;;;;;;48.03;5.10;;;;;;;4.12;100.00;98315.69;2575974;28;20116;-81
2022/05/31 04:06:42;;;;;;;40.25;4.20;;;;;;;4.06;100.00;98309.69;2575702;28;20065;-79
2022/05/31 04:08:11;;;;;;;31.00;3.42;;;;;;;4.32;100.00;98310.44;2575746;28;20057;-81
2022/05/31 04:09:26;;;;;;;28.80;3.95;;;;;;;4.17;100.00;98316.53;2575556;28;20046;-80
2022/05/31 04:10:43;;;;;;;11.38;3.40;;;;;;;4.04;100.00;98320.91;2575597;28;20089;-83
2022/05/31 04:11:59;;;;;;;15.55;3.58;;;;;;;3.98;100.00;98321.78;2575969;28;20642;-79
2022/05/31 04:13:16;;;;;;;26.75;3.13;;;;;;;3.85;100.00;98320.09;2576663;28;20057;-80
2022/05/31 04:14:32;;;;;;;11.68;3.60;;;;;;;3.77;100.00;98318.41;2577936;28;20050;-79
2022/05/31 04:15:48;;;;;;;51.10;4.05;;;;;;;3.65;100.00;98319.28;2578424;28;20092;-80
2022/05/31 04:17:04;;;;;;;39.13;3.75;;;;;;;3.68;100.00;98318.44;2578056;28;20046;-79
2022/05/31 04:18:20;;;;;;;30.80;3.50;;;;;;;3.73;100.00;98328.78;2576280;28;20226;-79
2022/05/31 04:19:36;;;;;;;40.95;4.20;;;;;;;3.75;100.00;98327.88;2575277;28;20050;-79
2022/05/31 04:20:51;;;;;;;49.03;3.83;;;;;;;3.78;100.00;98330.50;2575469;28;20065;-84
2022/05/31 04:22:07;;;;;;;51.33;4.10;;;;;;;3.84;100.00;98324.41;2575562;28;20402;-81
2022/05/31 04:25:00;;;;;;;86.32;5.25;;;;;;;3.92;100.00;98334.78;2575674;28;20050;-81
2022/05/31 04:26:16;;;;;;;92.35;5.57;;;;;;;4.05;100.00;98333.00;2575713;28;20508;-80
2022/05/31 04:27:32;;;;;;;91.70;5.45;;;;;;;4.12;100.00;98333.84;2575158;28;20424;-80
2022/05/31 04:28:48;;;;;;;89.30;6.57;;;;;;;4.03;100.00;98334.72;2575632;28;20140;-80
2022/05/31 04:30:04;;;;;;;57.53;4.30;;;;;;;4.04;100.00;98334.72;2575350;28;20137;-82
2022/05/31 04:31:20;;;;;;;51.60;4.20;;;;;;;3.93;100.00;98333.91;2575390;28;20046;-83
2022/05/31 04:32:38;;;;;;;85.55;4.82;;;;;;;3.87;100.00;98337.38;2575256;28;20054;-80
2022/05/31 04:33:54;;;;;;;49.25;4.05;;;;;;;3.98;100.00;98332.16;2575734;28;20489;-83
2022/05/31 04:35:09;;;;;;;25.80;3.55;;;;;;;3.93;100.00;98336.50;2575335;28;20046;-80
2022/05/31 04:36:25;;;;;;;66.07;5.07;;;;;;;4.02;100.00;98336.44;2564232;28;20653;-78
2022/05/31 04:37:41;;;;;;;60.38;4.35;;;;;;;4.05;100.00;98335.59;2568303;28;20050;-82
2022/05/31 04:38:59;;;;;;;16.45;3.88;;;;;;;4.23;100.00;98335.50;2575389;28;20058;-81
2022/05/31 04:40:14;;;;;;;18.58;3.35;;;;;;;4.22;100.00;98335.53;2575224;28;20081;-78
2022/05/31 04:41:31;;;;;;;33.20;3.92;;;;;;;4.28;100.00;98335.50;2575494;28;20497;-79
2022/05/31 04:42:47;;;;;;;21.73;3.80;;;;;;;4.11;100.00;98338.13;2575178;28;20614;-79
2022/05/31 04:44:04;;;;;;;22.02;3.38;;;;;;;4.13;100.00;98338.16;2575307;28;20046;-82
2022/05/31 04:45:20;;;;;;;41.88;4.30;;;;;;;4.26;100.00;98342.41;2575449;28;20100;-79
2022/05/31 04:46:36;;;;;;;9.77;2.92;;;;;;;4.16;100.00;98341.59;2575354;28;20058;-80
2022/05/31 04:47:51;;;;;;;22.23;3.92;;;;;;;4.27;100.00;98345.88;2575283;28;20054;-80
2022/05/31 04:49:07;;;;;;;18.58;3.97;;;;;;;4.34;100.00;98348.44;2575421;28;20058;-80
2022/05/31 04:50:23;;;;;;;39.95;4.20;;;;;;;4.40;100.00;98344.97;2575441;28;20058;-83
2022/05/31 04:51:38;;;;;;;61.20;5.15;;;;;;;4.43;100.00;98339.75;2575171;28;20440;-79
2022/05/31 04:52:54;;;;;;;91.95;8.63;;;;;;;4.45;100.00;98332.84;2575362;28;20054;-79
2022/05/31 04:54:10;;;;;;;10.25;3.78;;;;;;;4.51;100.00;98339.72;2575407;28;20046;-79
2022/05/31 04:55:28;;;;;;;25.30;4.15;;;;;;;4.55;100.00;98340.56;2575246;28;20061;-80
2022/05/31 04:56:44;;;;;;;12.70;3.97;;;;;;;4.69;100.00;98340.47;2574941;28;20082;-82
2022/05/31 04:58:00;;;;;;;74.15;5.55;;;;;;;4.80;100.00;98343.88;2575234;28;20500;-80
2022/05/31 04:59:18;;;;;;;68.38;5.43;;;;;;;4.86;100.00;98346.41;2575765;28;20077;-79
2022/05/31 05:00:34;;;;;;;80.20;5.22;;;;;;;4.80;100.00;98342.13;2574136;28;20046;-83
2022/05/31 05:01:50;;;;;;;17.02;3.63;;;;;;;4.90;100.00;98337.75;2575163;28;20054;-84
2022/05/31 05:03:05;;;;;;;57.17;4.72;;;;;;;4.89;100.00;98337.75;2575385;28;20061;-79
2022/05/31 05:04:21;;;;;;;39.22;4.70;;;;;;;4.94;100.00;98339.47;2575411;28;20046;-79
2022/05/31 05:05:36;;;;;;;19.42;3.75;;;;;;;4.96;100.00;98339.47;2575156;28;20054;-79
2022/05/31 05:06:52;;;;;;;46.63;4.60;;;;;;;5.08;100.00;98339.34;2575145;28;20515;-78
2022/05/31 05:08:07;;;;;;;44.88;6.82;;;;;;;5.16;100.00;98341.88;2575323;28;20874;-78
2022/05/31 05:09:23;;;;;;;49.70;4.70;;;;;;;5.26;100.00;98342.69;2575349;28;20051;-79
2022/05/31 05:10:44;;;;;;;51.83;4.70;;;;;;;5.20;100.00;98341.00;2575217;28;20050;-78
2022/05/31 05:12:00;;;;;;;25.75;4.70;;;;;;;5.25;100.00;98335.78;2575077;28;20322;-79
2022/05/31 05:13:15;;;;;;;38.17;4.20;;;;;;;5.09;100.00;98335.03;2574800;28;20062;-80
2022/05/31 05:14:31;;;;;;;22.85;3.80;;;;;;;5.23;100.00;98337.50;2575318;28;20121;-79
2022/05/31 05:15:46;;;;;;;24.80;4.13;;;;;;;5.33;100.00;98333.97;2574740;28;20818;-81
2022/05/31 05:17:03;;;;;;;14.07;3.80;;;;;;;5.28;100.00;98327.97;2574618;28;20054;-83
2022/05/31 05:18:19;;;;;;;19.63;4.25;;;;;;;5.31;100.00;98340.06;2574006;28;20050;-83
2022/05/31 05:19:35;;;;;;;30.42;4.43;;;;;;;5.36;100.00;98343.47;2574310;28;20100;-78
2022/05/31 05:20:50;;;;;;;12.52;3.90;;;;;;;5.40;100.00;98336.53;2575262;28;20137;-78
2022/05/31 05:22:06;;;;;;;14.48;4.13;;;;;;;5.52;100.00;98339.00;2574529;28;20054;-78
2022/05/31 05:23:21;;;;;;;11.30;3.80;;;;;;;5.48;100.00;98332.97;2574396;28;20402;-79
2022/05/31 05:24:37;;;;;;;8.40;3.80;;;;;;;5.54;100.00;98337.25;2575250;28;20425;-79
2022/05/31 05:25:55;;;;;;;6.05;4.45;;;;;;;5.64;100.00;98338.03;2575279;28;20046;-79
2022/05/31 05:27:11;;;;;;;5.95;4.05;;;;;;;5.70;100.00;98335.34;2575243;28;20057;-80
2022/05/31 05:31:36;;;;;;;5.65;4.35;;;;;;;6.10;100.00;98335.84;2577054;28;20050;-79
2022/05/31 05:32:53;;;;;;;7.85;4.90;;;;;;;6.07;100.00;98335.00;2576763;28;20058;-79
2022/05/31 05:34:09;;;;;;;8.63;4.03;;;;;;;6.01;100.00;98331.56;2576840;28;20101;-79
2022/05/31 05:35:24;;;;;;;6.13;4.40;;;;;;;6.04;100.00;98327.25;2577089;28;20732;-80
2022/05/31 05:36:40;;;;;;;7.65;4.68;;;;;;;6.05;100.00;98326.38;2576867;28;20137;-80
2022/05/31 05:37:56;;;;;;;7.75;4.75;;;;;;;6.20;100.00;98330.50;2576940;28;20089;-80
2022/05/31 05:39:11;;;;;;;7.07;4.85;;;;;;;6.19;100.00;98325.34;2576885;28;20042;-80
2022/05/31 05:40:27;;;;;;;6.32;4.43;;;;;;;6.23;100.00;98327.00;2576671;28;20520;-87
2022/05/31 05:41:42;;;;;;;6.15;4.80;;;;;;;6.23;100.00;98327.00;2576675;28;20686;-80
2022/05/31 05:42:58;;;;;;;7.40;5.03;;;;;;;6.40;100.00;98333.72;2576910;28;20606;-79
2022/05/31 05:44:14;;;;;;;8.38;5.05;;;;;;;6.43;100.00;98333.72;2577007;28;20137;-79
2022/05/31 05:45:31;;;;;;;9.82;4.88;;;;;;;6.32;100.00;98329.50;2577118;28;20429;-79
2022/05/31 05:46:47;;;;;;;6.63;4.50;;;;;;;6.40;100.00;98331.13;2576774;28;20050;-80
2022/05/31 05:48:04;;;;;;;6.82;4.55;;;;;;;6.40;100.00;98331.13;2577081;28;20070;-80
2022/05/31 05:49:20;;;;;;;8.10;5.35;;;;;;;6.51;100.00;98326.66;2577097;28;20050;-80
2022/05/31 05:50:37;;;;;;;7.55;5.18;;;;;;;6.63;100.00;98323.03;2576910;28;20054;-79
2022/05/31 05:51:57;;;;;;;7.10;5.38;;;;;;;6.69;100.00;98324.69;2576968;28;20050;-80
2022/05/31 05:53:13;;;;;;;7.13;5.63;;;;;;;6.72;100.00;98316.84;2576963;28;20089;-80
2022/05/31 05:54:29;;;;;;;7.47;5.38;;;;;;;6.76;100.00;98321.13;2576999;28;20050;-80
2022/05/31 05:55:44;;;;;;;6.93;5.32;;;;;;;6.89;100.00;98321.78;2576940;28;20050;-79
2022/05/31 05:57:00;;;;;;;7.72;5.47;;;;;;;6.93;100.00;98316.50;2576655;28;20046;-79
2022/05/31 05:58:16;;;;;;;7.70;5.60;;;;;;;6.95;100.00;98316.50;2576972;28;20439;-81
2022/05/31 05:59:32;;;;;;;8.50;5.25;;;;;;;7.07;100.00;98318.91;2576821;28;20060;-80
2022/05/31 06:00:52;;;;;;;6.80;5.35;;;;;;;7.18;100.00;98312.66;2566126;28;20131;-80
2022/05/31 06:02:18;;;;;;;7.90;5.28;;;;;;;7.17;100.00;98318.75;2570613;28;20054;-80
2022/05/31 06:03:51;;;;;;;7.38;5.32;;;;;;;7.32;100.00;98313.28;2577092;28;20548;-82
2022/05/31 06:05:12;;;;;;;7.97;5.20;;;;;;;7.36;100.00;98316.72;2576642;28;20050;-84
2022/05/31 06:06:31;;;;;;;7.47;5.50;;;;;;;7.47;100.00;98312.19;2576475;28;20062;-80
2022/05/31 06:07:55;;;;;;;9.02;5.22;;;;;;;7.55;100.00;98317.25;2576927;28;20054;-80
2022/05/31 06:09:20;;;;;;;9.25;4.95;;;;;;;7.58;100.00;98313.75;2576670;28;20058;-80
2022/05/31 06:10:52;;;;;;;6.95;5.25;;;;;;;7.58;100.00;98319.78;2576744;28;20050;-84
2022/05/31 06:12:13;;;;;;;6.85;5.05;;;;;;;7.70;100.00;98310.91;2576857;28;20406;-81
2022/05/31 06:13:34;;;;;;;6.47;5.20;;;;;;;7.86;100.00;98313.22;2576864;28;20054;-81
2022/05/31 06:14:58;;;;;;;7.32;5.32;;;;;;;7.93;100.00;98316.59;2576953;28;20497;-80
2022/05/31 06:16:14;;;;;;;8.32;5.50;;;;;;;8.25;100.00;98313.34;2576634;28;20402;-80